Time;durP1;ratioP1;P1;durP2;ratioP2;P2;SDS_P1;SDS_P2;PMS_P1;PMS_P2;Temp;Humidity;BMP_temperature;BMP_pressure;BME280_temperature;BME280_humidity;BME280_pressure;Samples;Min_cycle;Max_cycle;Signal;HPM_P1;HPM_P2
2022/03/25 00:00:00;;;;;;;0.90;0.90;;;;;;;6.70;50.24;101427.60;103962;1281;108939;-74
2022/03/25 00:02:48;;;;;;;0.90;0.90;;;;;;;6.70;50.34;101422.13;103927;1280;138738;-75
2022/03/25 00:05:16;;;;;;;0.90;0.90;;;;;;;6.68;50.10;101424.42;103941;1281;97127;-76
2022/03/25 00:07:45;;;;;;;0.80;0.80;;;;;;;6.68;50.11;101424.95;103956;1281;137760;-76
2022/03/25 00:10:13;;;;;;;0.80;0.80;;;;;;;6.69;50.02;101429.54;104024;1280;98957;-75
2022/03/25 00:12:41;;;;;;;0.80;0.80;;;;;;;6.68;50.02;101427.60;103808;1282;107808;-75
2022/03/25 00:15:09;;;;;;;0.90;0.90;;;;;;;6.67;49.99;101424.95;103690;1281;137791;-76
2022/03/25 00:17:37;;;;;;;1.00;1.00;;;;;;;6.67;49.91;101418.23;103931;1281;95330;-75
2022/03/25 00:20:06;;;;;;;0.80;0.80;;;;;;;6.66;49.70;101419.81;103715;1281;138208;-76
2022/03/25 00:22:35;;;;;;;0.90;0.90;;;;;;;6.61;49.90;101419.26;103847;1283;98211;-76
2022/03/25 00:25:05;;;;;;;1.00;1.00;;;;;;;6.55;50.09;101418.86;103998;1280;108651;-75
2022/03/25 00:27:33;;;;;;;0.90;0.90;;;;;;;6.48;50.20;101417.22;103863;1281;137757;-75
2022/03/25 00:30:02;;;;;;;0.90;0.90;;;;;;;6.44;50.02;101416.34;104003;1281;95740;-76
2022/03/25 00:32:30;;;;;;;1.00;1.00;;;;;;;6.43;50.08;101413.31;103762;1280;137883;-75
2022/03/25 00:34:59;;;;;;;0.90;0.90;;;;;;;6.40;49.96;101415.41;104002;1281;98313;-76
2022/03/25 00:37:27;;;;;;;1.10;1.10;;;;;;;6.30;50.12;101413.40;104001;1281;107985;-75
2022/03/25 00:40:15;;;;;;;0.90;0.90;;;;;;;6.22;50.36;101420.39;103900;1281;137927;-76
2022/03/25 00:42:47;;;;;;;1.00;1.00;;;;;;;6.21;50.53;101415.79;104015;1281;95465;-75
2022/03/25 00:45:32;;;;;;;;;;;;;;;;;;;;;
2022/03/25 00:48:17;;;;;;;0.90;0.90;;;;;;;6.13;51.03;101407.98;103488;1282;98359;-76
2022/03/25 00:51:14;;;;;;;1.00;1.00;;;;;;;6.09;51.16;101405.64;103468;1284;138136;-75
2022/03/25 00:53:45;;;;;;;1.00;1.00;;;;;;;6.11;51.02;101405.14;104049;1280;95249;-75
2022/03/25 00:56:15;;;;;;;0.90;0.90;;;;;;;6.13;50.94;101404.80;103913;1280;139231;-76
2022/03/25 00:58:44;;;;;;;1.00;1.00;;;;;;;6.16;50.77;101408.52;103793;1281;108877;-76
2022/03/25 01:01:15;;;;;;;0.90;0.90;;;;;;;6.16;50.58;101403.59;103969;1281;97512;-75
2022/03/25 01:03:43;;;;;;;1.00;1.00;;;;;;;6.17;50.53;101403.25;103809;1281;138406;-75
2022/03/25 01:06:11;;;;;;;1.00;1.00;;;;;;;6.21;50.57;101402.38;104015;1281;96139;-72
2022/03/25 01:08:40;;;;;;;1.00;1.00;;;;;;;6.15;50.60;101402.52;103807;1281;137607;-76
2022/03/25 01:11:08;;;;;;;0.90;0.90;;;;;;;6.09;50.80;101400.36;103962;1281;108706;-76
2022/03/25 01:13:37;;;;;;;0.90;0.90;;;;;;;6.03;51.06;101398.89;104002;1280;98174;-76
2022/03/25 01:16:06;;;;;;;0.90;0.90;;;;;;;5.99;51.22;101399.56;103865;1280;137909;-75
2022/03/25 01:18:35;;;;;;;1.00;1.00;;;;;;;6.02;50.82;101402.93;103874;1281;96365;-76
2022/03/25 01:21:03;;;;;;;0.80;0.80;;;;;;;6.05;50.70;101404.91;103878;1281;137969;-76
2022/03/25 01:23:31;;;;;;;0.90;0.90;;;;;;;6.12;50.44;101402.67;104038;1280;108720;-75
2022/03/25 01:25:58;;;;;;;0.90;0.90;;;;;;;6.14;50.36;101402.15;103179;1281;700739;-76
2022/03/25 01:28:32;;;;;;;0.90;0.90;;;;;;;6.12;50.43;101401.79;103928;1281;107609;-76
2022/03/25 01:31:06;;;;;;;0.90;0.90;;;;;;;6.11;50.60;101400.90;104001;1281;96561;-75
2022/03/25 01:33:37;;;;;;;0.90;0.90;;;;;;;6.07;50.48;101399.98;103858;1281;137806;-75
2022/03/25 01:36:09;;;;;;;1.00;1.00;;;;;;;6.02;50.66;101399.59;104045;1280;108459;-75
2022/03/25 01:38:37;;;;;;;1.00;1.00;;;;;;;5.97;50.69;101405.17;103865;1280;137816;-75
2022/03/25 01:41:07;;;;;;;1.00;1.00;;;;;;;5.94;50.76;101406.19;104014;1280;107821;-75
2022/03/25 01:43:35;;;;;;;1.00;1.00;;;;;;;5.93;50.65;101409.88;104041;1281;95726;-75
2022/03/25 01:46:03;;;;;;;1.10;1.10;;;;;;;5.87;50.95;101405.42;103982;1281;137455;-73
2022/03/25 01:48:31;;;;;;;1.00;1.00;;;;;;;5.86;50.78;101414.77;104043;1280;108579;-76
2022/03/25 01:51:00;;;;;;;1.00;1.00;;;;;;;5.86;50.66;101412.10;103976;1280;137823;-75
2022/03/25 01:53:29;;;;;;;0.90;0.90;;;;;;;5.84;50.83;101411.55;103770;1279;107846;-76
2022/03/25 01:55:59;;;;;;;1.00;1.00;;;;;;;5.80;50.91;101410.11;103890;1280;139123;-76
2022/03/25 01:58:29;;;;;;;1.10;1.10;;;;;;;5.75;51.15;101405.64;104119;1280;95410;-75
2022/03/25 02:00:59;;;;;;;1.00;1.00;;;;;;;5.72;51.33;101406.52;104025;1279;108629;-75
2022/03/25 02:03:28;;;;;;;0.90;0.90;;;;;;;5.75;51.32;101408.12;103902;1281;138295;-74
2022/03/25 02:05:59;;;;;;;0.90;0.90;;;;;;;5.76;51.20;101406.72;103913;1280;108267;-76
2022/03/25 02:08:27;;;;;;;0.90;0.90;;;;;;;5.74;51.38;101411.10;103680;1280;138087;-76
2022/03/25 02:10:56;;;;;;;1.10;1.10;;;;;;;5.69;51.59;101408.41;104064;1279;96510;-76
2022/03/25 02:13:25;;;;;;;0.90;0.90;;;;;;;5.67;51.57;101411.05;104083;1280;108422;-75
2022/03/25 02:15:57;;;;;;;1.00;1.00;;;;;;;5.62;51.67;101409.41;103882;1280;137866;-75
2022/03/25 02:18:25;;;;;;;1.00;1.00;;;;;;;5.54;51.71;101408.08;103880;1280;108386;-74
2022/03/25 02:20:53;;;;;;;1.10;1.10;;;;;;;5.49;51.89;101411.22;104000;1280;137744;-74
2022/03/25 02:23:23;;;;;;;1.00;1.00;;;;;;;5.51;51.82;101414.21;103846;1281;95329;-73
2022/03/25 02:25:53;;;;;;;1.00;1.00;;;;;;;5.55;51.60;101415.50;103901;1280;138984;-74
2022/03/25 02:28:21;;;;;;;1.10;1.10;;;;;;;5.54;51.73;101412.66;103927;1281;98869;-76
2022/03/25 02:30:51;;;;;;;1.00;1.00;;;;;;;5.50;51.73;101416.14;103800;1281;107643;-76
2022/03/25 02:33:19;;;;;;;1.00;1.00;;;;;;;5.46;51.76;101421.73;103893;1280;137734;-75
2022/03/25 02:35:49;;;;;;;1.00;1.00;;;;;;;5.43;51.77;101416.94;103777;1281;96353;-75
2022/03/25 02:38:19;;;;;;;1.10;1.10;;;;;;;5.40;51.84;101423.26;103982;1280;137741;-75
2022/03/25 02:40:48;;;;;;;1.10;1.10;;;;;;;5.31;52.14;101423.33;103787;1281;98628;-75
2022/03/25 02:43:17;;;;;;;1.10;1.10;;;;;;;5.25;52.30;101421.67;103817;1280;107567;-75
2022/03/25 02:45:59;;;;;;;1.00;1.00;;;;;;;5.19;52.39;101420.02;103889;1281;138581;-76
2022/03/25 02:48:27;;;;;;;1.00;1.00;;;;;;;5.16;52.34;101423.51;103824;1283;95680;-76
2022/03/25 02:50:55;;;;;;;1.00;1.00;;;;;;;5.14;52.57;101419.79;103790;1281;137798;-75
2022/03/25 02:53:24;;;;;;;1.00;1.00;;;;;;;5.09;52.57;101416.19;103869;1281;97614;-76
2022/03/25 02:55:52;;;;;;;1.00;1.00;;;;;;;5.06;52.58;101420.91;103869;1279;137801;-75
2022/03/25 02:58:20;;;;;;;1.00;1.00;;;;;;;5.06;52.59;101421.42;104077;1280;95237;-75
2022/03/25 03:00:49;;;;;;;1.10;1.10;;;;;;;4.98;52.90;101424.67;104076;1279;95151;-75
2022/03/25 03:03:17;;;;;;;1.00;1.00;;;;;;;4.96;52.90;101426.59;103626;1281;138382;-75
2022/03/25 03:05:46;;;;;;;1.00;1.00;;;;;;;5.01;52.73;101427.53;104048;1280;96559;-76
2022/03/25 03:08:14;;;;;;;0.90;0.90;;;;;;;5.00;52.71;101427.88;103892;1281;138129;-76
2022/03/25 03:10:43;;;;;;;1.00;1.00;;;;;;;5.00;52.74;101427.16;103896;1281;95358;-73
2022/03/25 03:13:11;;;;;;;1.00;1.00;;;;;;;4.96;52.87;101427.81;103988;1280;95687;-75
2022/03/25 03:15:42;;;;;;;1.10;1.10;;;;;;;4.93;52.75;101433.75;103724;1281;137600;-76
2022/03/25 03:18:10;;;;;;;1.10;1.10;;;;;;;4.92;52.69;101436.04;104016;1281;98400;-76
2022/03/25 03:20:39;;;;;;;1.20;1.20;;;;;;;4.89;52.67;101434.06;103606;1281;137736;-75
2022/03/25 03:23:08;;;;;;;1.10;1.10;;;;;;;4.85;52.97;101434.70;103974;1281;95283;-76
2022/03/25 03:25:36;;;;;;;1.00;1.00;;;;;;;4.87;53.07;101434.02;103800;1281;95560;-75
2022/03/25 03:28:04;;;;;;;1.00;1.00;;;;;;;4.83;53.07;101433.98;103713;1281;137964;-75
2022/03/25 03:30:33;;;;;;;1.10;1.10;;;;;;;4.84;53.28;101434.35;103827;1280;98896;-75
2022/03/25 03:33:04;;;;;;;1.10;1.10;;;;;;;4.85;52.83;101438.59;103636;1280;137902;-76
2022/03/25 03:35:36;;;;;;;1.10;1.10;;;;;;;4.89;52.64;101437.40;103964;1281;95437;-76
2022/03/25 03:38:06;;;;;;;1.00;1.00;;;;;;;4.91;52.46;101442.36;103775;1280;137788;-75
2022/03/25 03:40:34;;;;;;;1.10;1.10;;;;;;;4.94;52.44;101442.58;104047;1279;108715;-75
2022/03/25 03:43:03;;;;;;;1.00;1.00;;;;;;;4.86;52.59;101443.70;103882;1280;97362;-75
2022/03/25 03:45:32;;;;;;;1.00;1.00;;;;;;;4.81;52.89;101442.05;103658;1279;137988;-73
2022/03/25 03:48:01;;;;;;;1.00;1.00;;;;;;;4.76;53.27;101438.27;103780;1280;95498;-75
2022/03/25 03:50:28;;;;;;;1.00;1.00;;;;;;;4.78;53.28;101437.95;103989;1279;137994;-75
2022/03/25 03:52:56;;;;;;;1.10;1.10;;;;;;;4.83;53.04;101440.84;103892;1281;108827;-73
2022/03/25 03:55:25;;;;;;;1.00;1.00;;;;;;;4.86;52.72;101442.48;103871;1280;98426;-75
2022/03/25 03:58:11;;;;;;;1.30;1.30;;;;;;;4.82;52.80;101443.83;103708;1279;137694;-75
2022/03/25 04:00:39;;;;;;;1.20;1.20;;;;;;;4.76;52.91;101443.55;104034;1280;95371;-73
2022/03/25 04:03:07;;;;;;;1.10;1.10;;;;;;;4.69;53.07;101444.88;103821;1279;138003;-75
2022/03/25 04:05:36;;;;;;;1.10;1.10;;;;;;;4.69;52.98;101450.51;104173;1279;108553;-75
2022/03/25 04:08:04;;;;;;;1.00;1.00;;;;;;;4.64;53.11;101448.13;103825;1280;137959;-75
2022/03/25 04:10:32;;;;;;;1.20;1.20;;;;;;;4.62;53.19;101448.63;103867;1280;106619;-75
2022/03/25 04:13:00;;;;;;;1.10;1.10;;;;;;;4.62;53.45;101449.51;104022;1279;96540;-76
2022/03/25 04:15:29;;;;;;;1.10;1.10;;;;;;;4.49;53.40;101445.45;103741;1280;137740;-76
2022/03/25 04:17:58;;;;;;;1.20;1.20;;;;;;;4.33;53.58;101448.71;103932;1280;108732;-76
2022/03/25 04:20:26;;;;;;;1.10;1.10;;;;;;;4.26;53.97;101452.63;103925;1279;139683;-75
2022/03/25 04:22:54;;;;;;;1.10;1.10;;;;;;;4.27;54.17;101453.17;103897;1279;107822;-75
2022/03/25 04:25:22;;;;;;;1.10;1.10;;;;;;;4.33;54.15;101453.45;103769;1279;95845;-75
2022/03/25 04:27:52;;;;;;;1.10;1.10;;;;;;;4.34;53.97;101452.92;103963;1279;137709;-74
2022/03/25 04:30:31;;;;;;;1.20;1.20;;;;;;;4.32;53.97;101450.98;103821;1281;109156;-75
2022/03/25 04:33:00;;;;;;;1.20;1.20;;;;;;;4.29;53.85;101456.20;103697;1280;138590;-75
2022/03/25 04:35:28;;;;;;;1.10;1.10;;;;;;;4.28;54.21;101455.66;104204;1280;107795;-76
2022/03/25 04:37:57;;;;;;;1.20;1.20;;;;;;;4.32;54.23;101453.27;103861;1280;138765;-76
2022/03/25 04:40:28;;;;;;;1.00;1.00;;;;;;;4.26;54.25;101453.33;104423;1279;95138;-75
2022/03/25 04:42:58;;;;;;;1.20;1.20;;;;;;;4.08;54.46;101452.33;104124;1279;108788;-76
2022/03/25 04:45:27;;;;;;;1.10;1.10;;;;;;;3.89;55.04;101455.85;103910;1280;137963;-75
2022/03/25 04:47:56;;;;;;;1.10;1.10;;;;;;;3.85;55.45;101456.33;103863;1280;108184;-76
2022/03/25 04:50:25;;;;;;;1.30;1.30;;;;;;;3.88;55.63;101455.85;103645;1279;139094;-78
2022/03/25 04:52:54;;;;;;;1.20;1.20;;;;;;;3.98;55.10;101463.77;104036;1280;95710;-74
2022/03/25 04:55:21;;;;;;;1.20;1.20;;;;;;;4.02;55.24;101462.94;103970;1280;108698;-75
2022/03/25 04:57:50;;;;;;;1.20;1.20;;;;;;;4.06;55.46;101458.98;103922;1279;138303;-75
2022/03/25 05:00:18;;;;;;;1.20;1.20;;;;;;;4.08;55.53;101458.31;103754;1280;107957;-75
2022/03/25 05:02:46;;;;;;;1.10;1.10;;;;;;;4.14;55.40;101462.11;103956;1279;138445;-74
2022/03/25 05:05:15;;;;;;;1.10;1.10;;;;;;;4.14;55.24;101459.48;103797;1280;95336;-74
2022/03/25 05:07:45;;;;;;;1.10;1.10;;;;;;;4.11;55.63;101464.34;104026;1280;108737;-75
2022/03/25 05:10:14;;;;;;;1.10;1.10;;;;;;;4.13;55.70;101462.27;103969;1279;137647;-75
2022/03/25 05:12:43;;;;;;;1.10;1.10;;;;;;;4.14;55.63;101459.46;104041;1279;108727;-75
2022/03/25 05:15:12;;;;;;;1.10;1.10;;;;;;;4.22;55.61;101465.58;103824;1280;138561;-75
2022/03/25 05:17:46;;;;;;;1.20;1.20;;;;;;;4.35;55.44;101465.96;103812;1280;96144;-75
2022/03/25 05:20:15;;;;;;;1.10;1.10;;;;;;;4.43;55.04;101466.80;103633;1279;138135;-74
2022/03/25 05:22:44;;;;;;;1.10;1.10;;;;;;;4.43;55.27;101466.80;104183;1279;98842;-75
2022/03/25 05:25:13;;;;;;;1.20;1.20;;;;;;;4.46;55.20;101467.56;103700;1279;107751;-74
2022/03/25 05:27:51;;;;;;;1.10;1.10;;;;;;;4.49;55.53;101471.13;103656;1279;138140;-74
2022/03/25 05:30:24;;;;;;;1.00;1.00;;;;;;;4.58;55.42;101467.91;104005;1279;95161;-75
2022/03/25 05:32:54;;;;;;;1.00;1.00;;;;;;;4.67;55.43;101464.19;103850;1279;138075;-75
2022/03/25 05:35:24;;;;;;;1.10;1.10;;;;;;;4.79;55.22;101468.07;103756;1279;99919;-75
2022/03/25 05:37:52;;;;;;;1.10;1.10;;;;;;;4.91;54.75;101470.35;103659;1279;138129;-74
2022/03/25 05:40:22;;;;;;;1.10;1.10;;;;;;;4.97;55.15;101471.31;103858;1281;95902;-75
2022/03/25 05:42:51;;;;;;;1.20;1.20;;;;;;;5.05;54.87;101468.95;103930;1279;95320;-75
2022/03/25 05:45:20;;;;;;;0.90;0.90;;;;;;;5.18;54.24;101469.12;103825;1280;138422;-75
2022/03/25 05:47:49;;;;;;;1.00;1.00;;;;;;;5.31;53.51;101471.75;103778;1280;98386;-73
2022/03/25 05:50:17;;;;;;;0.90;0.90;;;;;;;5.42;53.13;101469.95;103720;1279;139029;-76
2022/03/25 05:52:46;;;;;;;0.90;0.90;;;;;;;5.47;53.08;101471.95;103964;1280;95336;-74
2022/03/25 05:55:16;;;;;;;1.00;1.00;;;;;;;5.53;52.62;101473.44;103793;1279;95233;-75
2022/03/25 05:57:45;;;;;;;1.00;1.00;;;;;;;5.63;52.18;101477.23;103879;1280;138191;-76
2022/03/25 06:00:14;;;;;;;1.00;1.00;;;;;;;5.73;51.64;101476.47;103910;1280;98873;-76
2022/03/25 06:02:45;;;;;;;1.00;1.00;;;;;;;5.80;51.33;101476.73;103730;1281;137974;-74
2022/03/25 06:05:13;;;;;;;1.00;1.00;;;;;;;5.84;50.88;101480.83;104025;1280;95386;-74
2022/03/25 06:07:44;;;;;;;0.90;0.90;;;;;;;5.85;50.66;101478.72;104136;1279;95240;-75
2022/03/25 06:10:14;;;;;;;0.80;0.80;;;;;;;5.90;50.67;101478.77;103974;1279;137611;-75
2022/03/25 06:12:42;;;;;;;0.90;0.90;;;;;;;5.97;50.55;101480.10;103665;1282;98397;-75
2022/03/25 06:15:11;;;;;;;0.90;0.90;;;;;;;6.05;50.47;101477.90;103649;1280;138371;-75
2022/03/25 06:17:47;;;;;;;0.90;0.90;;;;;;;6.16;50.35;101472.89;103862;1281;96015;-72
2022/03/25 06:20:20;;;;;;;0.80;0.80;;;;;;;6.22;50.02;101469.58;103674;1280;137797;-76
2022/03/25 06:22:49;;;;;;;0.80;0.80;;;;;;;6.31;49.99;101469.84;103732;1280;108721;-73
2022/03/25 06:25:18;;;;;;;0.90;0.90;;;;;;;6.33;49.50;101470.74;103816;1280;98661;-72
2022/03/25 06:27:51;;;;;;;0.80;0.80;;;;;;;6.32;49.49;101471.44;103879;1280;137746;-73
2022/03/25 06:30:21;;;;;;;0.80;0.80;;;;;;;6.40;49.57;101475.91;103797;1280;95298;-76
2022/03/25 06:32:49;;;;;;;0.90;0.90;;;;;;;6.47;49.48;101474.20;103984;1279;138187;-75
2022/03/25 06:35:18;;;;;;;0.90;0.90;;;;;;;6.57;49.43;101479.58;104025;1279;108679;-75
2022/03/25 06:37:47;;;;;;;0.80;0.80;;;;;;;6.69;49.39;101473.66;103847;1280;98303;-76
2022/03/25 06:40:16;;;;;;;0.90;0.90;;;;;;;6.81;49.16;101472.86;104005;1280;136412;-76
2022/03/25 06:42:44;;;;;;;0.80;0.80;;;;;;;6.93;48.82;101475.41;103930;1279;97152;-77
2022/03/25 06:45:14;;;;;;;0.80;0.80;;;;;;;7.00;48.43;101475.27;103614;1282;137589;-74
2022/03/25 06:47:43;;;;;;;0.80;0.80;;;;;;;7.04;48.36;101474.95;103902;1279;107601;-73
2022/03/25 06:50:13;;;;;;;0.80;0.80;;;;;;;7.10;48.09;101477.61;103823;1280;138387;-76
2022/03/25 06:52:42;;;;;;;0.80;0.80;;;;;;;7.19;47.97;101478.73;103950;1280;107985;-76
2022/03/25 06:55:11;;;;;;;0.80;0.80;;;;;;;7.29;47.90;101480.38;103786;1280;95166;-75
2022/03/25 06:57:46;;;;;;;0.70;0.70;;;;;;;7.39;47.83;101480.42;103722;1280;138020;-73
2022/03/25 07:00:15;;;;;;;0.70;0.70;;;;;;;7.51;47.64;101479.05;104066;1279;108328;-75
2022/03/25 07:02:43;;;;;;;0.80;0.80;;;;;;;7.58;47.10;101479.78;103840;1280;138286;-75
2022/03/25 07:05:13;;;;;;;0.80;0.80;;;;;;;7.70;46.94;101480.53;103849;1280;107548;-75
2022/03/25 07:07:41;;;;;;;0.70;0.70;;;;;;;7.78;46.08;101478.61;103839;1280;95619;-75
2022/03/25 07:10:13;;;;;;;0.70;0.70;;;;;;;7.86;45.99;101477.55;103830;1279;137345;-76
2022/03/25 07:12:46;;;;;;;0.60;0.60;;;;;;;7.95;45.49;101479.71;103929;1279;109012;-75
2022/03/25 07:15:14;;;;;;;0.70;0.70;;;;;;;8.04;45.28;101482.19;103745;1280;138335;-75
2022/03/25 07:17:43;;;;;;;0.60;0.60;;;;;;;8.12;45.32;101481.14;103852;1280;108878;-75
2022/03/25 07:20:13;;;;;;;0.60;0.60;;;;;;;8.27;45.44;101485.75;103979;1281;138297;-75
2022/03/25 07:22:47;;;;;;;0.60;0.60;;;;;;;8.38;45.53;101488.60;103603;1282;95510;-76
2022/03/25 07:25:15;;;;;;;0.60;0.60;;;;;;;8.50;44.72;101488.27;103636;1282;108630;-75
2022/03/25 07:27:45;;;;;;;0.60;0.60;;;;;;;8.58;44.69;101490.23;104557;1282;138677;-76
2022/03/25 07:30:15;;;;;;;0.60;0.60;;;;;;;8.74;44.54;101484.02;103738;1282;107796;-76
2022/03/25 07:32:43;;;;;;;0.70;0.70;;;;;;;8.91;44.15;101484.88;104117;1281;139159;-77
2022/03/25 07:35:14;;;;;;;0.60;0.60;;;;;;;9.06;43.60;101488.73;103800;1282;95160;-75
2022/03/25 07:37:43;;;;;;;0.60;0.60;;;;;;;9.15;42.72;101492.24;103949;1281;108892;-75
2022/03/25 07:40:13;;;;;;;0.60;0.60;;;;;;;9.29;42.55;101495.05;103910;1281;137657;-75
2022/03/25 07:42:43;;;;;;;0.60;0.60;;;;;;;9.39;41.76;101494.66;103980;1281;108778;-76
2022/03/25 07:45:13;;;;;;;0.60;0.60;;;;;;;9.46;41.37;101493.02;103600;1281;138574;-76
2022/03/25 07:47:46;;;;;;;0.60;0.60;;;;;;;9.58;40.99;101498.83;104100;1281;95151;-75
2022/03/25 07:50:18;;;;;;;0.50;0.50;;;;;;;9.66;40.92;101497.36;103916;1281;137919;-76
2022/03/25 07:52:47;;;;;;;0.70;0.70;;;;;;;9.75;40.82;101499.64;104254;1281;99792;-73
2022/03/25 07:55:18;;;;;;;0.50;0.50;;;;;;;9.83;40.97;101498.53;103807;1281;107956;-76
2022/03/25 07:57:48;;;;;;;0.50;0.50;;;;;;;9.91;40.61;101497.42;104111;1281;139092;-76
2022/03/25 08:00:17;;;;;;;0.50;0.50;;;;;;;9.99;40.39;101497.92;103801;1283;97160;-73
2022/03/25 08:02:47;;;;;;;0.50;0.50;;;;;;;10.11;40.45;101492.85;103995;1281;139145;-75
2022/03/25 08:05:15;;;;;;;0.50;0.40;;;;;;;10.22;40.28;101493.31;103947;1282;98947;-76
2022/03/25 08:07:54;;;;;;;0.50;0.50;;;;;;;10.40;40.38;101492.32;103755;1281;107778;-75
2022/03/25 08:10:27;;;;;;;0.50;0.50;;;;;;;10.57;40.48;101497.33;103864;1281;138325;-76
2022/03/25 08:12:56;;;;;;;0.50;0.50;;;;;;;10.72;40.16;101495.08;103720;1282;96555;-76
2022/03/25 08:15:28;;;;;;;0.50;0.40;;;;;;;10.85;39.91;101495.47;103736;1282;137944;-76
2022/03/25 08:17:58;;;;;;;0.50;0.40;;;;;;;11.02;40.03;101492.48;104135;1281;98387;-76
2022/03/25 08:20:39;;;;;;;0.50;0.40;;;;;;;11.20;39.82;101494.04;103673;1281;138117;-74
2022/03/25 08:28:55;;;;;;;0.40;0.40;;;;;;;11.71;39.44;101497.34;104152;1279;108690;-75
2022/03/25 08:31:44;;;;;;;0.40;0.30;;;;;;;11.87;38.76;101496.77;104086;1279;96923;-74
2022/03/25 08:34:15;;;;;;;0.40;0.40;;;;;;;12.07;38.69;101496.15;103753;1279;138487;-76
2022/03/25 08:36:47;;;;;;;0.40;0.30;;;;;;;12.25;38.31;101497.48;104054;1279;95968;-75
2022/03/25 08:39:16;;;;;;;0.40;0.30;;;;;;;12.40;37.75;101492.09;103994;1279;138324;-76
2022/03/25 08:41:45;;;;;;;0.40;0.30;;;;;;;12.53;37.68;101492.23;104224;1279;108625;-76
2022/03/25 08:44:12;;;;;;;0.40;0.30;;;;;;;12.72;37.23;101489.23;103993;1279;138322;-75
2022/03/25 08:46:40;;;;;;;0.40;0.30;;;;;;;12.82;36.82;101488.33;104098;1279;108842;-76
2022/03/25 08:49:11;;;;;;;0.40;0.30;;;;;;;12.95;36.84;101490.42;104063;1281;95337;-76
2022/03/25 08:51:39;;;;;;;0.40;0.30;;;;;;;13.11;36.36;101488.17;103863;1279;138068;-76
2022/03/25 08:54:08;;;;;;;0.40;0.30;;;;;;;13.12;35.83;101483.49;103885;1279;109060;-76
2022/03/25 08:56:37;;;;;;;0.40;0.30;;;;;;;13.14;36.19;101483.45;104109;1280;138337;-77
2022/03/25 08:59:05;;;;;;;0.40;0.30;;;;;;;13.32;35.67;101491.69;104092;1280;107775;-76
2022/03/25 09:01:33;;;;;;;0.40;0.30;;;;;;;13.81;35.43;101490.48;104152;1279;95237;-75
2022/03/25 09:04:02;;;;;;;0.40;0.30;;;;;;;14.17;35.02;101485.73;103994;1281;138484;-75
2022/03/25 09:06:31;;;;;;;0.40;0.30;;;;;;;14.58;33.89;101482.42;103891;1279;108861;-76
2022/03/25 09:08:59;;;;;;;0.40;0.30;;;;;;;15.27;32.61;101476.80;103931;1280;138356;-76
2022/03/25 09:11:27;;;;;;;0.40;0.30;;;;;;;16.88;31.82;101469.20;104154;1279;107575;-76
2022/03/25 09:13:55;;;;;;;0.40;0.20;;;;;;;18.66;29.24;101465.95;103995;1279;95540;-75
2022/03/25 09:16:23;;;;;;;0.40;0.20;;;;;;;20.21;27.47;101461.33;104006;1280;138084;-76
2022/03/25 09:18:52;;;;;;;0.40;0.20;;;;;;;21.48;25.99;101464.55;104160;1280;108601;-76
2022/03/25 09:21:21;;;;;;;0.40;0.10;;;;;;;22.73;24.91;101459.92;104018;1279;139055;-76
2022/03/25 09:23:49;;;;;;;0.40;0.10;;;;;;;23.53;23.01;101459.73;104143;1279;108249;-76
2022/03/25 09:26:18;;;;;;;0.40;0.10;;;;;;;24.26;22.25;101461.33;103990;1282;138358;-76
2022/03/25 09:28:46;;;;;;;0.40;0.10;;;;;;;25.29;21.28;101458.61;104142;1281;96560;-76
2022/03/25 09:31:14;;;;;;;0.40;0.10;;;;;;;26.31;20.12;101461.15;104021;1281;108663;-77
2022/03/25 09:36:49;;;;;;;0.40;0.00;;;;;;;28.03;17.73;101456.92;104113;1280;109225;-76
2022/03/25 09:39:18;;;;;;;0.40;0.10;;;;;;;28.11;17.47;101454.46;103971;1280;138687;-76
2022/03/25 09:41:46;;;;;;;0.40;0.00;;;;;;;28.28;17.77;101452.83;104031;1280;95228;-77
2022/03/25 09:44:15;;;;;;;0.40;0.10;;;;;;;28.04;16.96;101452.87;103901;1280;138188;-76
2022/03/25 09:46:44;;;;;;;0.40;0.00;;;;;;;28.40;16.78;101446.55;104148;1279;98491;-75
2022/03/25 09:49:12;;;;;;;0.40;0.00;;;;;;;28.73;16.46;101442.48;103906;1279;107800;-77
2022/03/25 09:51:41;;;;;;;0.40;0.10;;;;;;;28.97;16.32;101440.35;104240;1280;138558;-77
2022/03/25 09:54:10;;;;;;;0.40;0.10;;;;;;;29.81;16.15;101441.48;104088;1279;95412;-77
2022/03/25 09:56:37;;;;;;;0.40;0.00;;;;;;;30.48;14.98;101441.02;103984;1280;138310;-78
2022/03/25 09:59:06;;;;;;;0.40;0.00;;;;;;;30.96;15.09;101438.86;104080;1281;98880;-77
2022/03/25 10:01:35;;;;;;;0.40;0.00;;;;;;;31.47;14.37;101437.38;103853;1281;108990;-77
2022/03/25 10:04:05;;;;;;;0.40;0.00;;;;;;;31.48;13.73;101437.34;103876;1280;138157;-77
2022/03/25 10:06:45;;;;;;;0.40;0.00;;;;;;;31.56;13.78;101434.12;104077;1280;95183;-77
2022/03/25 10:09:21;;;;;;;0.40;0.00;;;;;;;32.18;13.83;101436.59;103800;1280;138415;-77
2022/03/25 10:11:49;;;;;;;0.40;0.00;;;;;;;32.96;13.52;101431.73;103899;1281;98371;-77
2022/03/25 10:14:21;;;;;;;0.40;0.00;;;;;;;33.25;12.82;101432.16;104128;1279;139118;-77
2022/03/25 10:16:50;;;;;;;0.40;0.00;;;;;;;33.35;12.94;101433.30;104202;1280;96840;-75
2022/03/25 10:19:23;;;;;;;0.40;0.00;;;;;;;33.57;12.37;101430.23;104097;1281;96489;-77
2022/03/25 10:21:59;;;;;;;0.40;0.00;;;;;;;34.14;12.26;101433.55;104193;1279;137925;-78
2022/03/25 10:24:49;;;;;;;0.40;0.00;;;;;;;34.32;11.95;101431.25;104047;1279;98211;-77
2022/03/25 10:27:25;;;;;;;0.40;0.00;;;;;;;34.26;12.03;101435.58;104160;1280;138002;-76
2022/03/25 10:29:56;;;;;;;0.40;0.00;;;;;;;34.57;11.95;101437.34;104012;1281;96067;-77
2022/03/25 10:32:26;;;;;;;0.40;0.00;;;;;;;34.96;11.72;101435.91;104049;1280;138085;-77
2022/03/25 10:35:09;;;;;;;0.40;0.00;;;;;;;35.15;11.42;101426.33;104138;1279;108575;-77
2022/03/25 10:37:40;;;;;;;0.40;0.00;;;;;;;35.08;11.27;101427.74;104140;1280;98322;-76
2022/03/25 10:40:08;;;;;;;0.40;0.00;;;;;;;35.15;11.42;101421.73;103725;1281;138002;-76
2022/03/25 10:42:36;;;;;;;0.40;0.00;;;;;;;35.64;11.09;101416.95;103935;1281;95250;-77
2022/03/25 10:45:40;;;;;;;0.40;0.00;;;;;;;35.75;10.94;101419.09;103735;1281;139292;-77
2022/03/25 10:48:14;;;;;;;0.40;0.00;;;;;;;35.82;10.79;101413.45;103846;1282;108852;-76
2022/03/25 10:51:04;;;;;;;0.40;0.00;;;;;;;35.56;10.54;101410.21;104379;1281;138251;-76
2022/03/25 10:53:35;;;;;;;0.40;0.00;;;;;;;34.10;11.48;101410.77;104139;1279;107619;-75
2022/03/25 10:56:06;;;;;;;0.40;0.00;;;;;;;32.32;12.70;101411.41;104156;1280;95687;-76
2022/03/25 10:58:35;;;;;;;0.40;0.00;;;;;;;30.57;13.45;101411.16;104037;1279;138316;-75
2022/03/25 11:01:08;;;;;;;0.40;0.00;;;;;;;28.95;14.63;101411.63;103894;1280;107739;-76
2022/03/25 11:03:36;;;;;;;0.40;0.00;;;;;;;27.61;15.51;101406.35;103765;1282;138193;-77
2022/03/25 11:06:05;;;;;;;0.40;0.00;;;;;;;26.76;16.65;101404.98;104161;1281;108688;-75
2022/03/25 11:08:35;;;;;;;0.40;0.00;;;;;;;25.78;17.24;101411.98;103930;1279;139117;-77
2022/03/25 11:11:04;;;;;;;0.40;0.00;;;;;;;24.78;17.72;101410.44;104095;1279;95312;-77
2022/03/25 11:13:32;;;;;;;0.40;0.00;;;;;;;23.84;18.81;101410.58;104146;1279;107869;-76
2022/03/25 11:16:01;;;;;;;0.40;0.00;;;;;;;23.07;19.32;101410.80;103883;1279;138311;-77
2022/03/25 11:18:29;;;;;;;0.40;0.00;;;;;;;22.18;20.39;101408.55;104132;1280;107912;-76
2022/03/25 11:21:00;;;;;;;0.40;0.00;;;;;;;21.44;21.17;101418.33;104045;1279;139020;-76
2022/03/25 11:23:42;;;;;;;0.40;0.00;;;;;;;20.99;21.52;101408.16;103876;1281;95235;-75
2022/03/25 11:26:11;;;;;;;0.40;0.10;;;;;;;20.65;22.18;101406.65;104221;1279;107932;-76
2022/03/25 11:28:39;;;;;;;0.40;0.10;;;;;;;20.42;22.38;101400.98;104124;1280;137908;-76
2022/03/25 11:31:07;;;;;;;0.40;0.10;;;;;;;20.19;22.53;101399.45;103976;1279;107260;-76
2022/03/25 11:34:09;;;;;;;0.40;0.10;;;;;;;19.73;22.93;101396.45;103796;1280;138100;-76
2022/03/25 11:36:45;;;;;;;0.40;0.10;;;;;;;19.39;23.34;101394.86;104142;1281;96648;-75
2022/03/25 11:39:24;;;;;;;0.40;0.10;;;;;;;19.16;23.68;101390.13;103873;1282;137960;-75
2022/03/25 11:42:01;;;;;;;0.40;0.10;;;;;;;18.90;23.74;101389.35;104011;1281;98516;-75